Atwood, IN

4:23 AM EDT on August 31, 2016 (GMT -0400)
Etna | | Change Station

Elev 791 ft 41.25 °N, 86.01 °W | Updated 11 minutes ago

Scattered Clouds
Scattered Clouds
68.9 °F
Feels Like 68.9 °F
N
0.0
Wind Variable Wind from SSE

Today
High -- | Low -- °F
--% Chance of Precip.
Yesterday
High -- | Low -- °F
Precip. -- in
Pressure 30.02 in
Visibility 7.0 miles
Clouds Scattered Clouds 400 ft
Scattered Clouds 4000 ft
Dew Point 68 °F
Humidity 97%
Rainfall 0.00 in
Snow Depth Not available.
7:09 AM 8:17 PM
Waning Crescent, 1% visible
METAR KASW 310815Z AUTO 27004KT 7SM SCT004 SCT040 21/21 A3002 RMK AO2
Pressure 30.02 in
Visibility 7.0 miles
Clouds Scattered Clouds 400 ft
Scattered Clouds 4000 ft
Dew Point 68 °F
Humidity 97%
Rainfall 0.00 in
Snow Depth Not available.
7:09 AM 8:17 PM
Waning Crescent, 1% visible
METAR KASW 310815Z AUTO 27004KT 7SM SCT004 SCT040 21/21 A3002 RMK AO2

10-Day Weather Forecast

Almanac

Astronomy

Aug. 31, 2016 Rise Set
Actual Time
Civil Twilight
Nautical Twilight
Astronomical Twilight
Moon
Length of Visible Light
Length of Day
Tomorrow will be .
, % of the Moon is Illuminated

Today's Extremes

State Highs State Lows

Community

WunderPhotos

Upload Photos

1,936,052 photos uploaded!

WunderBlog® & News

Nearby

Air Quality

  Air Quality AQ Index Pollutant
Not available.

Snow Depth

Station Depth Elevation

Earthquake Activity

City Distance Mag. Time & Date
Minimum magnitude displayed is 2.5.

Coastal Water Temperatures

Place Temperature

Stations

Nearby Weather Stations

Station Location Temp. Windchill Dew Point Humidity Wind Precip. Elev Updated Type
                   

Watches & Warnings

There are currently no watches in effect.